sensor_id;sensor_type;location;lat;lon;timestamp;temperature;humidity
70051;SHT30;57391;51.306;22.680;2024-03-08T00:00:03;-0.16;73.63
70051;SHT30;57391;51.306;22.680;2024-03-08T00:02:33;-0.19;73.31
70051;SHT30;57391;51.306;22.680;2024-03-08T00:04:38;-0.21;73.47
70051;SHT30;57391;51.306;22.680;2024-03-08T00:06:40;-0.23;73.54
70051;SHT30;57391;51.306;22.680;2024-03-08T00:08:42;-0.25;73.64
70051;SHT30;57391;51.306;22.680;2024-03-08T00:10:45;-0.27;73.30
70051;SHT30;57391;51.306;22.680;2024-03-08T00:12:47;-0.30;73.25
70051;SHT30;57391;51.306;22.680;2024-03-08T00:14:48;-0.32;73.21
70051;SHT30;57391;51.306;22.680;2024-03-08T00:16:50;-0.34;73.30
70051;SHT30;57391;51.306;22.680;2024-03-08T00:18:54;-0.36;73.32
70051;SHT30;57391;51.306;22.680;2024-03-08T00:20:56;-0.38;73.32
70051;SHT30;57391;51.306;22.680;2024-03-08T00:22:58;-0.38;73.95
70051;SHT30;57391;51.306;22.680;2024-03-08T00:25:01;-0.37;74.45
70051;SHT30;57391;51.306;22.680;2024-03-08T00:27:04;-0.38;73.99
70051;SHT30;57391;51.306;22.680;2024-03-08T00:29:07;-0.37;73.95
70051;SHT30;57391;51.306;22.680;2024-03-08T00:31:09;-0.39;73.70
70051;SHT30;57391;51.306;22.680;2024-03-08T00:33:10;-0.41;73.40
70051;SHT30;57391;51.306;22.680;2024-03-08T00:35:13;-0.43;73.43
70051;SHT30;57391;51.306;22.680;2024-03-08T00:37:14;-0.44;73.39
70051;SHT30;57391;51.306;22.680;2024-03-08T00:39:16;-0.44;73.74
70051;SHT30;57391;51.306;22.680;2024-03-08T00:41:18;-0.45;73.50
70051;SHT30;57391;51.306;22.680;2024-03-08T00:43:20;-0.46;73.53
70051;SHT30;57391;51.306;22.680;2024-03-08T00:45:22;-0.47;73.49
70051;SHT30;57391;51.306;22.680;2024-03-08T00:47:25;-0.48;73.35
70051;SHT30;57391;51.306;22.680;2024-03-08T00:49:27;-0.51;73.24
70051;SHT30;57391;51.306;22.680;2024-03-08T00:51:30;-0.54;73.01
70051;SHT30;57391;51.306;22.680;2024-03-08T00:53:32;-0.56;73.00
70051;SHT30;57391;51.306;22.680;2024-03-08T00:55:34;-0.58;73.31
70051;SHT30;57391;51.306;22.680;2024-03-08T00:57:36;-0.59;73.56
70051;SHT30;57391;51.306;22.680;2024-03-08T00:59:40;-0.62;73.29
70051;SHT30;57391;51.306;22.680;2024-03-08T01:01:42;-0.62;73.28
70051;SHT30;57391;51.306;22.680;2024-03-08T01:03:45;-0.64;74.03
70051;SHT30;57391;51.306;22.680;2024-03-08T01:05:47;-0.62;74.21
70051;SHT30;57391;51.306;22.680;2024-03-08T01:07:49;-0.63;73.61
70051;SHT30;57391;51.306;22.680;2024-03-08T01:09:51;-0.64;73.68
70051;SHT30;57391;51.306;22.680;2024-03-08T01:11:54;-0.67;73.61
70051;SHT30;57391;51.306;22.680;2024-03-08T01:13:57;-0.68;73.57
70051;SHT30;57391;51.306;22.680;2024-03-08T01:15:59;-0.68;73.53
70051;SHT30;57391;51.306;22.680;2024-03-08T01:18:01;-0.72;73.39
70051;SHT30;57391;51.306;22.680;2024-03-08T01:20:03;-0.74;73.32
70051;SHT30;57391;51.306;22.680;2024-03-08T01:22:06;-0.77;73.30
70051;SHT30;57391;51.306;22.680;2024-03-08T01:24:08;-0.80;73.20
70051;SHT30;57391;51.306;22.680;2024-03-08T01:26:10;-0.83;73.20
70051;SHT30;57391;51.306;22.680;2024-03-08T01:28:12;-0.84;73.21
70051;SHT30;57391;51.306;22.680;2024-03-08T01:30:14;-0.85;73.24
70051;SHT30;57391;51.306;22.680;2024-03-08T01:32:18;-0.87;73.25
70051;SHT30;57391;51.306;22.680;2024-03-08T01:34:20;-0.88;73.22
70051;SHT30;57391;51.306;22.680;2024-03-08T01:36:22;-0.88;73.24
70051;SHT30;57391;51.306;22.680;2024-03-08T01:38:24;-0.89;73.15
70051;SHT30;57391;51.306;22.680;2024-03-08T01:40:26;-0.91;73.19
70051;SHT30;57391;51.306;22.680;2024-03-08T01:42:28;-0.90;73.43
70051;SHT30;57391;51.306;22.680;2024-03-08T01:44:30;-0.92;73.49
70051;SHT30;57391;51.306;22.680;2024-03-08T01:46:32;-0.92;73.78
70051;SHT30;57391;51.306;22.680;2024-03-08T01:48:35;-0.92;73.91
70051;SHT30;57391;51.306;22.680;2024-03-08T01:50:38;-0.93;74.03
70051;SHT30;57391;51.306;22.680;2024-03-08T02:01:11;-0.99;74.10
70051;SHT30;57391;51.306;22.680;2024-03-08T02:03:19;-0.98;74.43
70051;SHT30;57391;51.306;22.680;2024-03-08T02:05:21;-0.98;74.47
70051;SHT30;57391;51.306;22.680;2024-03-08T02:07:24;-0.98;74.88
70051;SHT30;57391;51.306;22.680;2024-03-08T02:09:26;-0.97;75.11
70051;SHT30;57391;51.306;22.680;2024-03-08T02:11:29;-0.98;75.19
70051;SHT30;57391;51.306;22.680;2024-03-08T02:13:31;-0.98;75.16
70051;SHT30;57391;51.306;22.680;2024-03-08T02:18:00;-1.01;75.20
70051;SHT30;57391;51.306;22.680;2024-03-08T02:20:02;-1.04;75.20
70051;SHT30;57391;51.306;22.680;2024-03-08T02:22:06;-1.05;75.28
70051;SHT30;57391;51.306;22.680;2024-03-08T02:24:07;-1.06;75.39
70051;SHT30;57391;51.306;22.680;2024-03-08T02:26:09;-1.08;75.29
70051;SHT30;57391;51.306;22.680;2024-03-08T02:28:11;-1.11;74.68
70051;SHT30;57391;51.306;22.680;2024-03-08T02:30:15;-1.13;74.36
70051;SHT30;57391;51.306;22.680;2024-03-08T02:32:18;-1.16;74.47
70051;SHT30;57391;51.306;22.680;2024-03-08T02:34:20;-1.15;75.14
70051;SHT30;57391;51.306;22.680;2024-03-08T02:36:22;-1.16;75.45
70051;SHT30;57391;51.306;22.680;2024-03-08T02:38:24;-1.15;75.69
70051;SHT30;57391;51.306;22.680;2024-03-08T02:40:25;-1.14;75.60
70051;SHT30;57391;51.306;22.680;2024-03-08T02:42:27;-1.15;75.60
70051;SHT30;57391;51.306;22.680;2024-03-08T02:44:29;-1.17;75.43
70051;SHT30;57391;51.306;22.680;2024-03-08T02:46:31;-1.19;75.01
70051;SHT30;57391;51.306;22.680;2024-03-08T02:48:33;-1.23;74.63
70051;SHT30;57391;51.306;22.680;2024-03-08T02:50:34;-1.25;75.15
70051;SHT30;57391;51.306;22.680;2024-03-08T02:52:37;-1.25;75.55
70051;SHT30;57391;51.306;22.680;2024-03-08T02:54:39;-1.25;75.74
70051;SHT30;57391;51.306;22.680;2024-03-08T02:56:41;-1.26;75.20
70051;SHT30;57391;51.306;22.680;2024-03-08T02:58:43;-1.27;75.66
70051;SHT30;57391;51.306;22.680;2024-03-08T03:00:49;-1.26;75.95
70051;SHT30;57391;51.306;22.680;2024-03-08T03:02:51;-1.26;76.00
70051;SHT30;57391;51.306;22.680;2024-03-08T03:04:56;-1.26;76.06
70051;SHT30;57391;51.306;22.680;2024-03-08T03:06:58;-1.27;76.06
70051;SHT30;57391;51.306;22.680;2024-03-08T03:09:00;-1.26;76.20
70051;SHT30;57391;51.306;22.680;2024-03-08T03:11:01;-1.26;76.20
70051;SHT30;57391;51.306;22.680;2024-03-08T03:13:03;-1.26;76.16
70051;SHT30;57391;51.306;22.680;2024-03-08T03:15:12;-1.27;76.16
70051;SHT30;57391;51.306;22.680;2024-03-08T03:17:14;-1.27;76.13
70051;SHT30;57391;51.306;22.680;2024-03-08T03:19:16;-1.27;76.05
70051;SHT30;57391;51.306;22.680;2024-03-08T03:21:17;-1.29;75.91
70051;SHT30;57391;51.306;22.680;2024-03-08T03:23:19;-1.32;75.94
70051;SHT30;57391;51.306;22.680;2024-03-08T03:25:21;-1.34;75.55
70051;SHT30;57391;51.306;22.680;2024-03-08T03:27:30;-1.36;75.63
70051;SHT30;57391;51.306;22.680;2024-03-08T03:29:31;-1.39;75.46
70051;SHT30;57391;51.306;22.680;2024-03-08T03:31:33;-1.39;75.88
70051;SHT30;57391;51.306;22.680;2024-03-08T03:33:35;-1.39;76.11
70051;SHT30;57391;51.306;22.680;2024-03-08T03:35:38;-1.40;76.04
70051;SHT30;57391;51.306;22.680;2024-03-08T03:37:40;-1.41;76.14
70051;SHT30;57391;51.306;22.680;2024-03-08T03:39:44;-1.42;76.01
70051;SHT30;57391;51.306;22.680;2024-03-08T03:41:55;-1.43;76.20
70051;SHT30;57391;51.306;22.680;2024-03-08T03:43:57;-1.42;76.56
70051;SHT30;57391;51.306;22.680;2024-03-08T03:45:59;-1.41;76.85
70051;SHT30;57391;51.306;22.680;2024-03-08T03:48:02;-1.37;76.96
70051;SHT30;57391;51.306;22.680;2024-03-08T03:50:08;-1.34;76.94
70051;SHT30;57391;51.306;22.680;2024-03-08T03:52:11;-1.32;76.90
70051;SHT30;57391;51.306;22.680;2024-03-08T03:54:12;-1.31;76.88
70051;SHT30;57391;51.306;22.680;2024-03-08T03:56:14;-1.29;76.80
70051;SHT30;57391;51.306;22.680;2024-03-08T03:58:16;-1.26;76.81
70051;SHT30;57391;51.306;22.680;2024-03-08T04:00:23;-1.25;76.80
70051;SHT30;57391;51.306;22.680;2024-03-08T04:02:25;-1.22;76.71
70051;SHT30;57391;51.306;22.680;2024-03-08T04:04:27;-1.21;76.69
70051;SHT30;57391;51.306;22.680;2024-03-08T04:06:30;-1.22;76.76
70051;SHT30;57391;51.306;22.680;2024-03-08T04:08:32;-1.21;76.74
70051;SHT30;57391;51.306;22.680;2024-03-08T04:10:35;-1.22;76.57
70051;SHT30;57391;51.306;22.680;2024-03-08T04:12:37;-1.24;76.05
70051;SHT30;57391;51.306;22.680;2024-03-08T04:14:41;-1.27;75.65
70051;SHT30;57391;51.306;22.680;2024-03-08T04:16:43;-1.29;75.74
70051;SHT30;57391;51.306;22.680;2024-03-08T04:18:45;-1.30;75.78
70051;SHT30;57391;51.306;22.680;2024-03-08T04:20:47;-1.32;75.90
70051;SHT30;57391;51.306;22.680;2024-03-08T04:22:49;-1.32;76.07
70051;SHT30;57391;51.306;22.680;2024-03-08T04:24:51;-1.33;76.13
70051;SHT30;57391;51.306;22.680;2024-03-08T04:26:52;-1.32;76.24
70051;SHT30;57391;51.306;22.680;2024-03-08T04:28:54;-1.31;76.45
70051;SHT30;57391;51.306;22.680;2024-03-08T04:30:56;-1.29;76.61
70051;SHT30;57391;51.306;22.680;2024-03-08T04:32:57;-1.29;76.41
70051;SHT30;57391;51.306;22.680;2024-03-08T04:34:59;-1.28;76.28
70051;SHT30;57391;51.306;22.680;2024-03-08T04:37:04;-1.27;75.95
70051;SHT30;57391;51.306;22.680;2024-03-08T04:39:06;-1.29;75.81
70051;SHT30;57391;51.306;22.680;2024-03-08T04:41:13;-1.29;76.10
70051;SHT30;57391;51.306;22.680;2024-03-08T04:43:15;-1.26;76.38
70051;SHT30;57391;51.306;22.680;2024-03-08T04:45:19;-1.28;75.76
70051;SHT30;57391;51.306;22.680;2024-03-08T04:47:21;-1.34;75.11
70051;SHT30;57391;51.306;22.680;2024-03-08T04:49:23;-1.37;75.24
70051;SHT30;57391;51.306;22.680;2024-03-08T04:51:25;-1.36;76.03
70051;SHT30;57391;51.306;22.680;2024-03-08T04:53:26;-1.33;76.35
70051;SHT30;57391;51.306;22.680;2024-03-08T04:55:28;-1.30;76.43
70051;SHT30;57391;51.306;22.680;2024-03-08T04:57:30;-1.29;76.03
70051;SHT30;57391;51.306;22.680;2024-03-08T04:59:32;-1.29;75.99
70051;SHT30;57391;51.306;22.680;2024-03-08T05:01:34;-1.26;76.19
70051;SHT30;57391;51.306;22.680;2024-03-08T05:03:39;-1.24;76.21
70051;SHT30;57391;51.306;22.680;2024-03-08T05:05:40;-1.24;76.20
70051;SHT30;57391;51.306;22.680;2024-03-08T05:07:42;-1.23;76.01
70051;SHT30;57391;51.306;22.680;2024-03-08T05:09:46;-1.23;76.13
70051;SHT30;57391;51.306;22.680;2024-03-08T05:11:52;-1.22;76.05
70051;SHT30;57391;51.306;22.680;2024-03-08T05:13:54;-1.20;76.18
70051;SHT30;57391;51.306;22.680;2024-03-08T05:15:56;-1.18;76.13
70051;SHT30;57391;51.306;22.680;2024-03-08T05:17:59;-1.16;76.13
70051;SHT30;57391;51.306;22.680;2024-03-08T05:20:01;-1.05;76.13
70051;SHT30;57391;51.306;22.680;2024-03-08T05:22:04;-0.71;75.99
70051;SHT30;57391;51.306;22.680;2024-03-08T05:24:06;-0.42;75.47
70051;SHT30;57391;51.306;22.680;2024-03-08T05:26:10;-0.35;74.86
70051;SHT30;57391;51.306;22.680;2024-03-08T05:28:11;-0.07;74.10
70051;SHT30;57391;51.306;22.680;2024-03-08T05:30:14;0.36;73.31
70051;SHT30;57391;51.306;22.680;2024-03-08T05:32:16;0.53;72.86
70051;SHT30;57391;51.306;22.680;2024-03-08T05:34:18;0.79;72.63
70051;SHT30;57391;51.306;22.680;2024-03-08T05:36:23;0.99;71.68
70051;SHT30;57391;51.306;22.680;2024-03-08T05:38:28;0.96;71.32
70051;SHT30;57391;51.306;22.680;2024-03-08T05:40:30;1.06;71.25
70051;SHT30;57391;51.306;22.680;2024-03-08T05:42:33;1.10;70.90
70051;SHT30;57391;51.306;22.680;2024-03-08T05:44:35;1.04;70.53
70051;SHT30;57391;51.306;22.680;2024-03-08T05:46:37;1.11;70.19
70051;SHT30;57391;51.306;22.680;2024-03-08T05:48:39;1.46;69.94
70051;SHT30;57391;51.306;22.680;2024-03-08T05:50:40;1.73;69.97
70051;SHT30;57391;51.306;22.680;2024-03-08T05:52:45;1.89;69.75
70051;SHT30;57391;51.306;22.680;2024-03-08T05:54:48;2.33;69.13
70051;SHT30;57391;51.306;22.680;2024-03-08T05:56:50;2.83;68.18
70051;SHT30;57391;51.306;22.680;2024-03-08T05:58:54;3.12;67.43
70051;SHT30;57391;51.306;22.680;2024-03-08T06:00:56;3.33;66.74
70051;SHT30;57391;51.306;22.680;2024-03-08T06:02:58;3.67;66.16
70051;SHT30;57391;51.306;22.680;2024-03-08T06:05:00;4.08;65.45
70051;SHT30;57391;51.306;22.680;2024-03-08T06:07:03;4.30;64.71
70051;SHT30;57391;51.306;22.680;2024-03-08T06:09:05;4.41;64.38
70051;SHT30;57391;51.306;22.680;2024-03-08T06:11:18;4.72;63.90
70051;SHT30;57391;51.306;22.680;2024-03-08T06:13:24;5.12;62.99
70051;SHT30;57391;51.306;22.680;2024-03-08T06:15:26;5.28;62.36
70051;SHT30;57391;51.306;22.680;2024-03-08T06:17:28;5.34;62.15
70051;SHT30;57391;51.306;22.680;2024-03-08T06:19:30;5.61;61.89
70051;SHT30;57391;51.306;22.680;2024-03-08T06:21:31;6.04;61.11
70051;SHT30;57391;51.306;22.680;2024-03-08T06:23:33;6.30;60.45
70051;SHT30;57391;51.306;22.680;2024-03-08T06:25:35;6.30;60.15
70051;SHT30;57391;51.306;22.680;2024-03-08T06:27:36;6.20;60.08
70051;SHT30;57391;51.306;22.680;2024-03-08T06:29:38;6.35;59.99
70051;SHT30;57391;51.306;22.680;2024-03-08T06:31:40;6.69;59.42
70051;SHT30;57391;51.306;22.680;2024-03-08T06:33:42;6.87;58.94
70051;SHT30;57391;51.306;22.680;2024-03-08T06:35:44;6.82;58.72
70051;SHT30;57391;51.306;22.680;2024-03-08T06:37:46;6.79;58.84
70051;SHT30;57391;51.306;22.680;2024-03-08T06:39:48;7.02;58.56
70051;SHT30;57391;51.306;22.680;2024-03-08T06:41:51;7.36;57.79
70051;SHT30;57391;51.306;22.680;2024-03-08T06:43:53;7.61;57.42
70051;SHT30;57391;51.306;22.680;2024-03-08T06:45:59;7.71;57.21
70051;SHT30;57391;51.306;22.680;2024-03-08T06:48:00;7.53;57.26
70051;SHT30;57391;51.306;22.680;2024-03-08T06:50:02;7.20;57.69
70051;SHT30;57391;51.306;22.680;2024-03-08T06:52:05;6.98;58.21
70051;SHT30;57391;51.306;22.680;2024-03-08T06:54:07;6.75;58.51
70051;SHT30;57391;51.306;22.680;2024-03-08T06:56:12;6.57;58.95
70051;SHT30;57391;51.306;22.680;2024-03-08T06:58:14;6.45;59.33
70051;SHT30;57391;51.306;22.680;2024-03-08T07:00:17;6.28;59.70
70051;SHT30;57391;51.306;22.680;2024-03-08T07:02:19;6.09;60.26
70051;SHT30;57391;51.306;22.680;2024-03-08T07:04:25;5.94;60.79
70051;SHT30;57391;51.306;22.680;2024-03-08T07:06:30;5.87;61.13
70051;SHT30;57391;51.306;22.680;2024-03-08T07:08:36;5.83;61.29
70051;SHT30;57391;51.306;22.680;2024-03-08T07:10:37;5.80;61.86
70051;SHT30;57391;51.306;22.680;2024-03-08T07:12:41;5.86;61.83
70051;SHT30;57391;51.306;22.680;2024-03-08T07:14:43;5.94;61.74
70051;SHT30;57391;51.306;22.680;2024-03-08T07:16:46;5.98;62.06
70051;SHT30;57391;51.306;22.680;2024-03-08T07:18:48;6.08;61.99
70051;SHT30;57391;51.306;22.680;2024-03-08T07:20:53;6.19;61.96
70051;SHT30;57391;51.306;22.680;2024-03-08T07:22:55;6.34;61.53
70051;SHT30;57391;51.306;22.680;2024-03-08T07:24:57;6.51;61.21
70051;SHT30;57391;51.306;22.680;2024-03-08T07:27:17;6.61;60.51
70051;SHT30;57391;51.306;22.680;2024-03-08T07:29:19;6.68;60.40
70051;SHT30;57391;51.306;22.680;2024-03-08T07:31:20;6.74;60.61
70051;SHT30;57391;51.306;22.680;2024-03-08T07:33:39;6.85;60.20
70051;SHT30;57391;51.306;22.680;2024-03-08T07:35:41;6.98;60.14
70051;SHT30;57391;51.306;22.680;2024-03-08T07:37:45;7.09;59.92
70051;SHT30;57391;51.306;22.680;2024-03-08T07:39:47;7.21;59.60
70051;SHT30;57391;51.306;22.680;2024-03-08T07:41:49;7.34;59.69
70051;SHT30;57391;51.306;22.680;2024-03-08T07:43:53;7.40;59.80
70051;SHT30;57391;51.306;22.680;2024-03-08T07:45:55;7.36;60.04
70051;SHT30;57391;51.306;22.680;2024-03-08T07:47:57;7.35;59.96
70051;SHT30;57391;51.306;22.680;2024-03-08T07:49:59;7.34;59.33
70051;SHT30;57391;51.306;22.680;2024-03-08T07:52:01;7.33;58.92
70051;SHT30;57391;51.306;22.680;2024-03-08T07:54:05;7.46;58.99
70051;SHT30;57391;51.306;22.680;2024-03-08T07:56:08;7.63;58.74
70051;SHT30;57391;51.306;22.680;2024-03-08T07:58:14;7.75;58.84
70051;SHT30;57391;51.306;22.680;2024-03-08T08:00:16;7.79;59.05
70051;SHT30;57391;51.306;22.680;2024-03-08T08:02:21;7.86;58.30
70051;SHT30;57391;51.306;22.680;2024-03-08T08:04:23;7.93;58.13
70051;SHT30;57391;51.306;22.680;2024-03-08T08:06:26;8.00;57.79
70051;SHT30;57391;51.306;22.680;2024-03-08T08:10:09;8.30;57.14
70051;SHT30;57391;51.306;22.680;2024-03-08T08:12:19;8.50;56.25
70051;SHT30;57391;51.306;22.680;2024-03-08T08:14:24;8.64;55.96
70051;SHT30;57391;51.306;22.680;2024-03-08T08:16:25;8.69;56.81
70051;SHT30;57391;51.306;22.680;2024-03-08T08:18:27;8.70;56.14
70051;SHT30;57391;51.306;22.680;2024-03-08T08:20:30;8.75;55.95
70051;SHT30;57391;51.306;22.680;2024-03-08T08:22:32;8.81;55.91
70051;SHT30;57391;51.306;22.680;2024-03-08T08:24:34;8.88;55.41
70051;SHT30;57391;51.306;22.680;2024-03-08T08:26:41;8.89;55.51
70051;SHT30;57391;51.306;22.680;2024-03-08T08:28:45;8.84;55.54
70051;SHT30;57391;51.306;22.680;2024-03-08T08:30:47;8.76;55.40
70051;SHT30;57391;51.306;22.680;2024-03-08T08:32:50;8.69;55.74
70051;SHT30;57391;51.306;22.680;2024-03-08T08:34:54;8.68;55.84
70051;SHT30;57391;51.306;22.680;2024-03-08T08:36:58;8.65;55.74
70051;SHT30;57391;51.306;22.680;2024-03-08T08:39:00;8.71;56.59
70051;SHT30;57391;51.306;22.680;2024-03-08T08:41:04;8.88;55.51
70051;SHT30;57391;51.306;22.680;2024-03-08T08:43:07;8.98;55.28
70051;SHT30;57391;51.306;22.680;2024-03-08T08:45:10;8.98;54.85
70051;SHT30;57391;51.306;22.680;2024-03-08T08:47:12;9.02;53.94
70051;SHT30;57391;51.306;22.680;2024-03-08T08:49:14;9.01;54.06
70051;SHT30;57391;51.306;22.680;2024-03-08T08:51:20;9.06;53.81
70051;SHT30;57391;51.306;22.680;2024-03-08T08:53:22;9.08;53.60
70051;SHT30;57391;51.306;22.680;2024-03-08T08:55:23;9.09;53.20
70051;SHT30;57391;51.306;22.680;2024-03-08T08:57:54;9.18;53.16
70051;SHT30;57391;51.306;22.680;2024-03-08T08:59:57;9.19;52.31
70051;SHT30;57391;51.306;22.680;2024-03-08T09:01:59;9.22;51.89
70051;SHT30;57391;51.306;22.680;2024-03-08T09:04:00;9.29;51.83
70051;SHT30;57391;51.306;22.680;2024-03-08T09:06:05;9.39;51.86
70051;SHT30;57391;51.306;22.680;2024-03-08T09:08:13;9.53;51.91
70051;SHT30;57391;51.306;22.680;2024-03-08T09:10:15;9.63;51.74
70051;SHT30;57391;51.306;22.680;2024-03-08T09:12:16;9.75;51.39
70051;SHT30;57391;51.306;22.680;2024-03-08T09:14:18;9.81;51.26
70051;SHT30;57391;51.306;22.680;2024-03-08T09:16:21;9.85;51.09
70051;SHT30;57391;51.306;22.680;2024-03-08T09:18:24;9.88;50.45
70051;SHT30;57391;51.306;22.680;2024-03-08T09:20:26;9.93;50.46
70051;SHT30;57391;51.306;22.680;2024-03-08T09:22:43;10.00;49.80
70051;SHT30;57391;51.306;22.680;2024-03-08T09:24:46;10.05;49.49
70051;SHT30;57391;51.306;22.680;2024-03-08T09:26:48;10.02;49.24
70051;SHT30;57391;51.306;22.680;2024-03-08T09:28:50;10.00;48.86
70051;SHT30;57391;51.306;22.680;2024-03-08T09:30:52;10.02;48.88
70051;SHT30;57391;51.306;22.680;2024-03-08T09:32:57;10.00;48.59
70051;SHT30;57391;51.306;22.680;2024-03-08T09:34:59;10.02;48.58
70051;SHT30;57391;51.306;22.680;2024-03-08T09:37:02;9.97;47.88
70051;SHT30;57391;51.306;22.680;2024-03-08T09:39:07;9.91;47.74
70051;SHT30;57391;51.306;22.680;2024-03-08T09:41:26;9.91;47.69
70051;SHT30;57391;51.306;22.680;2024-03-08T09:43:30;9.94;47.86
70051;SHT30;57391;51.306;22.680;2024-03-08T09:45:32;9.97;47.65
70051;SHT30;57391;51.306;22.680;2024-03-08T09:47:43;10.01;47.25
70051;SHT30;57391;51.306;22.680;2024-03-08T09:49:45;10.03;46.54
70051;SHT30;57391;51.306;22.680;2024-03-08T09:51:48;10.08;46.38
70051;SHT30;57391;51.306;22.680;2024-03-08T09:53:52;10.11;46.14
70051;SHT30;57391;51.306;22.680;2024-03-08T09:56:21;10.13;45.81
70051;SHT30;57391;51.306;22.680;2024-03-08T09:58:25;10.10;44.51
70051;SHT30;57391;51.306;22.680;2024-03-08T10:00:48;10.07;45.42
70051;SHT30;57391;51.306;22.680;2024-03-08T10:03:15;10.12;45.09
70051;SHT30;57391;51.306;22.680;2024-03-08T10:05:18;10.15;44.97
70051;SHT30;57391;51.306;22.680;2024-03-08T10:07:20;10.16;44.45
70051;SHT30;57391;51.306;22.680;2024-03-08T10:09:23;10.14;44.47
70051;SHT30;57391;51.306;22.680;2024-03-08T10:11:46;10.14;44.51
70051;SHT30;57391;51.306;22.680;2024-03-08T10:14:16;10.15;45.01
70051;SHT30;57391;51.306;22.680;2024-03-08T10:16:18;10.16;45.03
70051;SHT30;57391;51.306;22.680;2024-03-08T10:18:20;10.18;45.67
70051;SHT30;57391;51.306;22.680;2024-03-08T10:20:25;10.21;45.90
70051;SHT30;57391;51.306;22.680;2024-03-08T10:22:38;10.22;45.55
70051;SHT30;57391;51.306;22.680;2024-03-08T10:24:40;10.19;45.72
70051;SHT30;57391;51.306;22.680;2024-03-08T10:26:42;10.19;45.91
70051;SHT30;57391;51.306;22.680;2024-03-08T10:28:45;10.19;45.64
70051;SHT30;57391;51.306;22.680;2024-03-08T10:30:49;10.17;45.06
70051;SHT30;57391;51.306;22.680;2024-03-08T10:32:51;10.17;44.31
70051;SHT30;57391;51.306;22.680;2024-03-08T10:34:53;10.17;44.47
70051;SHT30;57391;51.306;22.680;2024-03-08T10:36:55;10.16;44.71
70051;SHT30;57391;51.306;22.680;2024-03-08T10:39:08;10.17;44.00
70051;SHT30;57391;51.306;22.680;2024-03-08T10:41:14;10.13;44.28
70051;SHT30;57391;51.306;22.680;2024-03-08T10:43:19;10.18;45.21
70051;SHT30;57391;51.306;22.680;2024-03-08T10:45:31;10.21;45.05
70051;SHT30;57391;51.306;22.680;2024-03-08T10:47:44;10.23;44.61
70051;SHT30;57391;51.306;22.680;2024-03-08T10:49:59;10.20;43.47
70051;SHT30;57391;51.306;22.680;2024-03-08T10:52:19;10.23;44.39
70051;SHT30;57391;51.306;22.680;2024-03-08T10:54:23;10.25;44.14
70051;SHT30;57391;51.306;22.680;2024-03-08T10:57:58;10.16;42.65
70051;SHT30;57391;51.306;22.680;2024-03-08T10:59:59;10.15;43.55
70051;SHT30;57391;51.306;22.680;2024-03-08T11:02:02;10.21;43.79
70051;SHT30;57391;51.306;22.680;2024-03-08T11:04:06;10.27;43.05
70051;SHT30;57391;51.306;22.680;2024-03-08T11:06:08;10.33;43.31
70051;SHT30;57391;51.306;22.680;2024-03-08T11:08:17;10.38;43.49
70051;SHT30;57391;51.306;22.680;2024-03-08T11:10:20;10.40;43.21
70051;SHT30;57391;51.306;22.680;2024-03-08T11:14:43;10.43;42.70
70051;SHT30;57391;51.306;22.680;2024-03-08T11:16:47;10.46;42.29
70051;SHT30;57391;51.306;22.680;2024-03-08T11:18:49;10.50;41.91
70051;SHT30;57391;51.306;22.680;2024-03-08T11:20:53;10.53;42.24
70051;SHT30;57391;51.306;22.680;2024-03-08T11:22:59;10.58;42.84
70051;SHT30;57391;51.306;22.680;2024-03-08T11:25:05;10.62;42.99
70051;SHT30;57391;51.306;22.680;2024-03-08T11:27:11;10.67;43.13
70051;SHT30;57391;51.306;22.680;2024-03-08T11:31:37;10.61;41.34
70051;SHT30;57391;51.306;22.680;2024-03-08T11:33:40;10.48;41.61
70051;SHT30;57391;51.306;22.680;2024-03-08T11:35:45;10.33;40.85
70051;SHT30;57391;51.306;22.680;2024-03-08T11:37:47;10.18;40.74
70051;SHT30;57391;51.306;22.680;2024-03-08T11:39:50;10.09;41.13
70051;SHT30;57391;51.306;22.680;2024-03-08T11:41:59;10.06;42.29
70051;SHT30;57391;51.306;22.680;2024-03-08T11:44:05;10.13;42.15
70051;SHT30;57391;51.306;22.680;2024-03-08T11:46:08;10.18;42.09
70051;SHT30;57391;51.306;22.680;2024-03-08T11:48:11;10.27;42.55
70051;SHT30;57391;51.306;22.680;2024-03-08T11:50:14;10.39;42.13
70051;SHT30;57391;51.306;22.680;2024-03-08T11:52:17;10.48;41.69
70051;SHT30;57391;51.306;22.680;2024-03-08T11:54:20;10.58;42.06
70051;SHT30;57391;51.306;22.680;2024-03-08T11:58:15;10.75;41.44
70051;SHT30;57391;51.306;22.680;2024-03-08T12:00:18;10.85;41.70
70051;SHT30;57391;51.306;22.680;2024-03-08T12:02:27;10.94;41.17
70051;SHT30;57391;51.306;22.680;2024-03-08T12:04:31;11.04;41.51
70051;SHT30;57391;51.306;22.680;2024-03-08T12:06:40;11.10;40.92
70051;SHT30;57391;51.306;22.680;2024-03-08T12:08:42;11.09;40.15
70051;SHT30;57391;51.306;22.680;2024-03-08T12:10:44;11.13;40.55
70051;SHT30;57391;51.306;22.680;2024-03-08T12:13:41;11.24;40.66
70051;SHT30;57391;51.306;22.680;2024-03-08T12:15:43;11.30;40.47
70051;SHT30;57391;51.306;22.680;2024-03-08T12:17:47;11.34;40.20
70051;SHT30;57391;51.306;22.680;2024-03-08T12:19:52;11.34;39.89
70051;SHT30;57391;51.306;22.680;2024-03-08T12:21:55;11.35;39.40
70051;SHT30;57391;51.306;22.680;2024-03-08T12:24:07;11.34;39.34
70051;SHT30;57391;51.306;22.680;2024-03-08T12:26:14;11.42;39.31
70051;SHT30;57391;51.306;22.680;2024-03-08T12:28:18;11.51;39.05
70051;SHT30;57391;51.306;22.680;2024-03-08T12:30:24;11.57;39.44
70051;SHT30;57391;51.306;22.680;2024-03-08T12:32:31;11.67;39.59
70051;SHT30;57391;51.306;22.680;2024-03-08T12:34:33;11.74;39.04
70051;SHT30;57391;51.306;22.680;2024-03-08T12:36:35;11.85;38.80
70051;SHT30;57391;51.306;22.680;2024-03-08T12:38:40;11.95;39.26
70051;SHT30;57391;51.306;22.680;2024-03-08T12:40:45;12.07;38.97
70051;SHT30;57391;51.306;22.680;2024-03-08T12:42:48;12.15;38.72
70051;SHT30;57391;51.306;22.680;2024-03-08T12:44:50;12.15;38.36
70051;SHT30;57391;51.306;22.680;2024-03-08T12:46:52;12.14;38.47
70051;SHT30;57391;51.306;22.680;2024-03-08T12:48:54;12.15;38.88
70051;SHT30;57391;51.306;22.680;2024-03-08T12:51:01;12.18;37.91
70051;SHT30;57391;51.306;22.680;2024-03-08T12:53:02;12.14;37.46
70051;SHT30;57391;51.306;22.680;2024-03-08T12:55:05;12.05;36.63
70051;SHT30;57391;51.306;22.680;2024-03-08T12:57:11;11.97;37.46
70051;SHT30;57391;51.306;22.680;2024-03-08T12:59:12;12.01;37.58
70051;SHT30;57391;51.306;22.680;2024-03-08T13:01:14;12.11;37.91
70051;SHT30;57391;51.306;22.680;2024-03-08T13:03:16;12.17;38.58
70051;SHT30;57391;51.306;22.680;2024-03-08T13:05:18;12.28;38.22
70051;SHT30;57391;51.306;22.680;2024-03-08T13:07:21;12.33;37.25
70051;SHT30;57391;51.306;22.680;2024-03-08T13:09:25;12.41;37.19
70051;SHT30;57391;51.306;22.680;2024-03-08T13:11:28;12.42;36.97
70051;SHT30;57391;51.306;22.680;2024-03-08T13:13:30;12.45;37.49